sensor_id;sensor_type;location;lat;lon;timestamp;P1;durP1;ratioP1;P2;durP2;ratioP2
74371;SDS011;62885;51.374;6.170;2022-10-22T00:01:13;6.60;;;2.78;;
74371;SDS011;62885;51.374;6.170;2022-10-22T00:03:39;10.40;;;2.80;;
74371;SDS011;62885;51.374;6.170;2022-10-22T00:06:05;5.78;;;2.70;;
74371;SDS011;62885;51.374;6.170;2022-10-22T00:08:31;7.35;;;3.08;;
74371;SDS011;62885;51.374;6.170;2022-10-22T00:10:56;7.18;;;3.17;;
74371;SDS011;62885;51.374;6.170;2022-10-22T00:13:22;5.95;;;2.63;;
74371;SDS011;62885;51.374;6.170;2022-10-22T00:15:47;5.35;;;2.58;;
74371;SDS011;62885;51.374;6.170;2022-10-22T00:18:13;7.63;;;2.92;;
74371;SDS011;62885;51.374;6.170;2022-10-22T00:20:38;7.13;;;2.70;;
74371;SDS011;62885;51.374;6.170;2022-10-22T00:23:04;6.53;;;2.25;;
74371;SDS011;62885;51.374;6.170;2022-10-22T00:25:29;7.50;;;2.63;;
74371;SDS011;62885;51.374;6.170;2022-10-22T00:27:55;8.15;;;2.50;;
74371;SDS011;62885;51.374;6.170;2022-10-22T00:30:20;6.47;;;2.80;;
74371;SDS011;62885;51.374;6.170;2022-10-22T00:32:46;7.78;;;2.50;;
74371;SDS011;62885;51.374;6.170;2022-10-22T00:35:11;5.93;;;2.88;;
74371;SDS011;62885;51.374;6.170;2022-10-22T00:37:36;5.68;;;2.78;;
74371;SDS011;62885;51.374;6.170;2022-10-22T00:40:02;5.00;;;2.50;;
74371;SDS011;62885;51.374;6.170;2022-10-22T00:42:28;6.22;;;2.83;;
74371;SDS011;62885;51.374;6.170;2022-10-22T00:50:30;8.70;;;3.47;;
74371;SDS011;62885;51.374;6.170;2022-10-22T00:52:59;6.03;;;2.85;;
74371;SDS011;62885;51.374;6.170;2022-10-22T00:55:26;4.32;;;2.50;;
74371;SDS011;62885;51.374;6.170;2022-10-22T00:57:53;6.90;;;3.15;;
74371;SDS011;62885;51.374;6.170;2022-10-22T01:00:21;6.70;;;2.65;;
74371;SDS011;62885;51.374;6.170;2022-10-22T01:02:47;7.53;;;2.58;;
74371;SDS011;62885;51.374;6.170;2022-10-22T01:05:15;6.78;;;2.80;;
74371;SDS011;62885;51.374;6.170;2022-10-22T01:07:46;10.48;;;3.03;;
74371;SDS011;62885;51.374;6.170;2022-10-22T01:26:05;6.43;;;2.72;;
74371;SDS011;62885;51.374;6.170;2022-10-22T01:31:20;11.18;;;2.83;;
74371;SDS011;62885;51.374;6.170;2022-10-22T01:33:47;7.68;;;2.22;;
74371;SDS011;62885;51.374;6.170;2022-10-22T01:36:15;8.13;;;2.35;;
74371;SDS011;62885;51.374;6.170;2022-10-22T01:38:42;13.15;;;2.70;;
74371;SDS011;62885;51.374;6.170;2022-10-22T01:41:10;4.72;;;2.20;;
74371;SDS011;62885;51.374;6.170;2022-10-22T01:43:35;6.70;;;2.38;;
74371;SDS011;62885;51.374;6.170;2022-10-22T01:46:01;7.82;;;2.97;;
74371;SDS011;62885;51.374;6.170;2022-10-22T01:53:51;5.45;;;2.17;;
74371;SDS011;62885;51.374;6.170;2022-10-22T01:56:44;8.60;;;3.17;;
74371;SDS011;62885;51.374;6.170;2022-10-22T01:59:21;5.88;;;2.60;;
74371;SDS011;62885;51.374;6.170;2022-10-22T02:04:44;5.63;;;2.72;;
74371;SDS011;62885;51.374;6.170;2022-10-22T02:07:16;5.50;;;2.70;;
74371;SDS011;62885;51.374;6.170;2022-10-22T02:09:45;8.48;;;2.78;;
74371;SDS011;62885;51.374;6.170;2022-10-22T02:12:11;6.95;;;2.95;;
74371;SDS011;62885;51.374;6.170;2022-10-22T02:14:38;10.35;;;3.10;;
74371;SDS011;62885;51.374;6.170;2022-10-22T02:17:08;6.88;;;2.97;;
74371;SDS011;62885;51.374;6.170;2022-10-22T02:22:25;6.85;;;2.90;;
74371;SDS011;62885;51.374;6.170;2022-10-22T02:24:51;8.93;;;2.83;;
74371;SDS011;62885;51.374;6.170;2022-10-22T02:29:42;6.82;;;2.80;;
74371;SDS011;62885;51.374;6.170;2022-10-22T02:32:20;7.72;;;3.08;;
74371;SDS011;62885;51.374;6.170;2022-10-22T02:34:50;11.55;;;2.67;;
74371;SDS011;62885;51.374;6.170;2022-10-22T02:37:16;7.90;;;2.95;;
74371;SDS011;62885;51.374;6.170;2022-10-22T02:39:42;7.78;;;2.63;;
74371;SDS011;62885;51.374;6.170;2022-10-22T02:42:09;7.88;;;2.85;;
74371;SDS011;62885;51.374;6.170;2022-10-22T02:44:36;8.75;;;3.30;;
74371;SDS011;62885;51.374;6.170;2022-10-22T02:47:02;8.23;;;2.70;;
74371;SDS011;62885;51.374;6.170;2022-10-22T02:49:28;5.85;;;3.00;;
74371;SDS011;62885;51.374;6.170;2022-10-22T02:51:53;5.68;;;2.42;;
74371;SDS011;62885;51.374;6.170;2022-10-22T02:54:19;7.70;;;2.42;;
74371;SDS011;62885;51.374;6.170;2022-10-22T02:56:44;6.85;;;2.75;;
74371;SDS011;62885;51.374;6.170;2022-10-22T02:59:09;5.63;;;2.60;;
74371;SDS011;62885;51.374;6.170;2022-10-22T03:01:35;6.47;;;2.90;;
74371;SDS011;62885;51.374;6.170;2022-10-22T03:04:00;5.78;;;2.47;;
74371;SDS011;62885;51.374;6.170;2022-10-22T03:06:25;5.70;;;2.25;;
74371;SDS011;62885;51.374;6.170;2022-10-22T03:08:51;5.88;;;2.55;;
74371;SDS011;62885;51.374;6.170;2022-10-22T03:11:16;6.13;;;2.47;;
74371;SDS011;62885;51.374;6.170;2022-10-22T03:13:42;4.53;;;1.95;;
74371;SDS011;62885;51.374;6.170;2022-10-22T03:16:07;8.20;;;2.63;;
74371;SDS011;62885;51.374;6.170;2022-10-22T03:18:33;6.30;;;2.80;;
74371;SDS011;62885;51.374;6.170;2022-10-22T03:21:00;7.03;;;2.78;;
74371;SDS011;62885;51.374;6.170;2022-10-22T03:23:31;10.40;;;2.80;;
74371;SDS011;62885;51.374;6.170;2022-10-22T03:25:57;7.40;;;2.50;;
74371;SDS011;62885;51.374;6.170;2022-10-22T03:28:23;8.10;;;2.95;;
74371;SDS011;62885;51.374;6.170;2022-10-22T03:30:50;6.60;;;2.72;;
74371;SDS011;62885;51.374;6.170;2022-10-22T03:33:16;6.13;;;2.55;;
74371;SDS011;62885;51.374;6.170;2022-10-22T03:35:42;7.50;;;2.37;;
74371;SDS011;62885;51.374;6.170;2022-10-22T03:38:10;6.50;;;2.67;;
74371;SDS011;62885;51.374;6.170;2022-10-22T03:40:37;6.32;;;2.60;;
74371;SDS011;62885;51.374;6.170;2022-10-22T03:43:03;8.80;;;2.63;;
74371;SDS011;62885;51.374;6.170;2022-10-22T03:45:28;9.68;;;2.58;;
74371;SDS011;62885;51.374;6.170;2022-10-22T03:47:53;7.20;;;2.47;;
74371;SDS011;62885;51.374;6.170;2022-10-22T03:50:19;6.55;;;2.45;;
74371;SDS011;62885;51.374;6.170;2022-10-22T03:52:44;5.38;;;2.58;;
74371;SDS011;62885;51.374;6.170;2022-10-22T03:55:09;5.00;;;2.28;;
74371;SDS011;62885;51.374;6.170;2022-10-22T03:57:35;7.45;;;2.83;;
74371;SDS011;62885;51.374;6.170;2022-10-22T04:00:00;6.05;;;2.30;;
74371;SDS011;62885;51.374;6.170;2022-10-22T04:02:26;10.25;;;3.35;;
74371;SDS011;62885;51.374;6.170;2022-10-22T04:04:51;8.20;;;2.85;;
74371;SDS011;62885;51.374;6.170;2022-10-22T04:07:16;4.88;;;2.28;;
74371;SDS011;62885;51.374;6.170;2022-10-22T04:09:42;6.72;;;2.92;;
74371;SDS011;62885;51.374;6.170;2022-10-22T04:12:07;7.70;;;2.78;;
74371;SDS011;62885;51.374;6.170;2022-10-22T04:14:33;6.32;;;2.60;;
74371;SDS011;62885;51.374;6.170;2022-10-22T04:16:59;7.03;;;2.75;;
74371;SDS011;62885;51.374;6.170;2022-10-22T04:19:25;5.47;;;2.72;;
74371;SDS011;62885;51.374;6.170;2022-10-22T04:21:50;7.45;;;3.05;;
74371;SDS011;62885;51.374;6.170;2022-10-22T04:24:16;8.02;;;2.58;;
74371;SDS011;62885;51.374;6.170;2022-10-22T04:26:41;5.18;;;2.67;;
74371;SDS011;62885;51.374;6.170;2022-10-22T04:29:07;6.15;;;2.97;;
74371;SDS011;62885;51.374;6.170;2022-10-22T04:31:33;8.30;;;2.50;;
74371;SDS011;62885;51.374;6.170;2022-10-22T04:33:58;8.20;;;3.03;;
74371;SDS011;62885;51.374;6.170;2022-10-22T04:36:25;5.97;;;2.78;;
74371;SDS011;62885;51.374;6.170;2022-10-22T04:38:52;10.98;;;5.25;;
74371;SDS011;62885;51.374;6.170;2022-10-22T04:41:26;5.50;;;3.08;;
74371;SDS011;62885;51.374;6.170;2022-10-22T04:43:56;9.40;;;2.45;;
74371;SDS011;62885;51.374;6.170;2022-10-22T04:46:22;10.45;;;2.90;;
74371;SDS011;62885;51.374;6.170;2022-10-22T04:48:49;6.50;;;2.40;;
74371;SDS011;62885;51.374;6.170;2022-10-22T04:51:16;11.20;;;3.13;;
74371;SDS011;62885;51.374;6.170;2022-10-22T04:53:42;5.10;;;2.42;;
74371;SDS011;62885;51.374;6.170;2022-10-22T04:56:12;7.22;;;2.90;;
74371;SDS011;62885;51.374;6.170;2022-10-22T04:58:40;10.30;;;3.10;;
74371;SDS011;62885;51.374;6.170;2022-10-22T05:01:16;8.60;;;2.65;;
74371;SDS011;62885;51.374;6.170;2022-10-22T05:03:44;5.75;;;2.80;;
74371;SDS011;62885;51.374;6.170;2022-10-22T05:06:10;8.38;;;2.42;;
74371;SDS011;62885;51.374;6.170;2022-10-22T05:08:36;6.90;;;2.80;;
74371;SDS011;62885;51.374;6.170;2022-10-22T05:11:09;10.27;;;3.25;;
74371;SDS011;62885;51.374;6.170;2022-10-22T05:13:35;5.43;;;3.05;;
74371;SDS011;62885;51.374;6.170;2022-10-22T05:16:00;6.93;;;2.87;;
74371;SDS011;62885;51.374;6.170;2022-10-22T05:18:26;5.28;;;2.53;;
74371;SDS011;62885;51.374;6.170;2022-10-22T05:20:51;7.93;;;3.15;;
74371;SDS011;62885;51.374;6.170;2022-10-22T05:23:16;6.18;;;3.00;;
74371;SDS011;62885;51.374;6.170;2022-10-22T05:25:42;8.63;;;3.55;;
74371;SDS011;62885;51.374;6.170;2022-10-22T05:28:07;8.20;;;2.55;;
74371;SDS011;62885;51.374;6.170;2022-10-22T05:30:32;9.95;;;3.22;;
74371;SDS011;62885;51.374;6.170;2022-10-22T05:32:58;7.20;;;3.10;;
74371;SDS011;62885;51.374;6.170;2022-10-22T05:35:23;8.15;;;3.60;;
74371;SDS011;62885;51.374;6.170;2022-10-22T05:37:49;11.88;;;3.35;;
74371;SDS011;62885;51.374;6.170;2022-10-22T05:40:14;6.85;;;3.25;;
74371;SDS011;62885;51.374;6.170;2022-10-22T05:42:39;5.85;;;3.35;;
74371;SDS011;62885;51.374;6.170;2022-10-22T05:45:05;7.85;;;3.92;;
74371;SDS011;62885;51.374;6.170;2022-10-22T05:47:30;8.63;;;3.00;;
74371;SDS011;62885;51.374;6.170;2022-10-22T05:49:56;7.25;;;3.45;;
74371;SDS011;62885;51.374;6.170;2022-10-22T05:52:22;8.82;;;3.08;;
74371;SDS011;62885;51.374;6.170;2022-10-22T05:54:47;9.13;;;3.20;;
74371;SDS011;62885;51.374;6.170;2022-10-22T05:57:13;11.25;;;4.68;;
74371;SDS011;62885;51.374;6.170;2022-10-22T05:59:38;10.43;;;4.87;;
74371;SDS011;62885;51.374;6.170;2022-10-22T06:02:03;10.57;;;4.43;;
74371;SDS011;62885;51.374;6.170;2022-10-22T06:04:29;7.47;;;2.72;;
74371;SDS011;62885;51.374;6.170;2022-10-22T06:06:54;8.98;;;2.97;;
74371;SDS011;62885;51.374;6.170;2022-10-22T06:09:24;8.85;;;3.05;;
74371;SDS011;62885;51.374;6.170;2022-10-22T06:11:52;10.98;;;2.78;;
74371;SDS011;62885;51.374;6.170;2022-10-22T06:14:19;7.40;;;2.47;;
74371;SDS011;62885;51.374;6.170;2022-10-22T06:16:46;10.68;;;2.75;;
74371;SDS011;62885;51.374;6.170;2022-10-22T06:19:12;8.45;;;2.70;;
74371;SDS011;62885;51.374;6.170;2022-10-22T06:21:38;5.50;;;2.58;;
74371;SDS011;62885;51.374;6.170;2022-10-22T06:24:04;6.18;;;2.03;;
74371;SDS011;62885;51.374;6.170;2022-10-22T06:26:32;8.15;;;2.40;;
74371;SDS011;62885;51.374;6.170;2022-10-22T06:28:58;7.00;;;2.42;;
74371;SDS011;62885;51.374;6.170;2022-10-22T06:31:24;4.57;;;1.90;;
74371;SDS011;62885;51.374;6.170;2022-10-22T06:33:50;7.03;;;2.30;;
74371;SDS011;62885;51.374;6.170;2022-10-22T06:36:20;7.05;;;2.17;;
74371;SDS011;62885;51.374;6.170;2022-10-22T06:38:49;5.75;;;2.08;;
74371;SDS011;62885;51.374;6.170;2022-10-22T06:41:16;7.32;;;1.80;;
74371;SDS011;62885;51.374;6.170;2022-10-22T06:43:42;6.72;;;2.80;;
74371;SDS011;62885;51.374;6.170;2022-10-22T06:46:09;6.50;;;2.83;;
74371;SDS011;62885;51.374;6.170;2022-10-22T06:48:35;5.90;;;2.40;;
74371;SDS011;62885;51.374;6.170;2022-10-22T06:51:02;7.30;;;2.55;;
74371;SDS011;62885;51.374;6.170;2022-10-22T06:53:29;5.70;;;2.25;;
74371;SDS011;62885;51.374;6.170;2022-10-22T06:55:55;9.23;;;1.77;;
74371;SDS011;62885;51.374;6.170;2022-10-22T06:58:20;8.57;;;1.77;;
74371;SDS011;62885;51.374;6.170;2022-10-22T07:00:45;5.43;;;2.13;;
74371;SDS011;62885;51.374;6.170;2022-10-22T07:03:11;6.75;;;2.92;;
74371;SDS011;62885;51.374;6.170;2022-10-22T07:05:37;10.82;;;2.92;;
74371;SDS011;62885;51.374;6.170;2022-10-22T07:08:03;6.82;;;3.17;;
74371;SDS011;62885;51.374;6.170;2022-10-22T07:10:29;11.88;;;2.70;;
74371;SDS011;62885;51.374;6.170;2022-10-22T07:12:54;6.28;;;2.55;;
74371;SDS011;62885;51.374;6.170;2022-10-22T07:15:19;6.82;;;2.65;;
74371;SDS011;62885;51.374;6.170;2022-10-22T07:17:45;5.22;;;2.53;;
74371;SDS011;62885;51.374;6.170;2022-10-22T07:20:10;6.13;;;2.58;;
74371;SDS011;62885;51.374;6.170;2022-10-22T07:22:36;12.43;;;3.30;;
74371;SDS011;62885;51.374;6.170;2022-10-22T07:25:02;11.60;;;3.00;;
74371;SDS011;62885;51.374;6.170;2022-10-22T07:27:28;6.57;;;2.40;;
74371;SDS011;62885;51.374;6.170;2022-10-22T07:29:53;9.30;;;3.03;;
74371;SDS011;62885;51.374;6.170;2022-10-22T07:32:18;7.18;;;2.60;;
74371;SDS011;62885;51.374;6.170;2022-10-22T07:34:44;4.63;;;2.17;;
74371;SDS011;62885;51.374;6.170;2022-10-22T07:37:09;7.68;;;2.97;;
74371;SDS011;62885;51.374;6.170;2022-10-22T07:39:34;7.73;;;2.40;;
74371;SDS011;62885;51.374;6.170;2022-10-22T07:42:00;6.32;;;2.25;;
74371;SDS011;62885;51.374;6.170;2022-10-22T07:44:25;6.90;;;2.47;;
74371;SDS011;62885;51.374;6.170;2022-10-22T07:46:50;6.70;;;2.10;;
74371;SDS011;62885;51.374;6.170;2022-10-22T07:49:16;6.87;;;2.70;;
74371;SDS011;62885;51.374;6.170;2022-10-22T07:51:41;6.40;;;2.80;;
74371;SDS011;62885;51.374;6.170;2022-10-22T07:54:06;6.57;;;2.10;;
74371;SDS011;62885;51.374;6.170;2022-10-22T07:56:32;4.45;;;1.92;;
74371;SDS011;62885;51.374;6.170;2022-10-22T07:58:57;6.55;;;2.00;;
74371;SDS011;62885;51.374;6.170;2022-10-22T08:01:22;5.90;;;2.25;;
74371;SDS011;62885;51.374;6.170;2022-10-22T08:03:48;6.18;;;2.17;;
74371;SDS011;62885;51.374;6.170;2022-10-22T08:06:13;6.35;;;2.00;;
74371;SDS011;62885;51.374;6.170;2022-10-22T08:08:39;4.85;;;2.05;;
74371;SDS011;62885;51.374;6.170;2022-10-22T08:11:05;5.85;;;2.22;;
74371;SDS011;62885;51.374;6.170;2022-10-22T08:13:30;6.85;;;2.03;;
74371;SDS011;62885;51.374;6.170;2022-10-22T08:15:57;6.05;;;1.50;;
74371;SDS011;62885;51.374;6.170;2022-10-22T08:18:23;8.57;;;1.70;;
74371;SDS011;62885;51.374;6.170;2022-10-22T08:20:49;16.60;;;2.25;;
74371;SDS011;62885;51.374;6.170;2022-10-22T08:23:15;10.02;;;2.28;;
74371;SDS011;62885;51.374;6.170;2022-10-22T08:25:40;7.90;;;2.35;;
74371;SDS011;62885;51.374;6.170;2022-10-22T08:28:05;7.63;;;2.00;;
74371;SDS011;62885;51.374;6.170;2022-10-22T08:30:31;8.43;;;2.25;;
74371;SDS011;62885;51.374;6.170;2022-10-22T08:32:58;8.95;;;1.85;;
74371;SDS011;62885;51.374;6.170;2022-10-22T08:35:23;2.90;;;1.25;;
74371;SDS011;62885;51.374;6.170;2022-10-22T08:37:49;10.30;;;2.10;;
74371;SDS011;62885;51.374;6.170;2022-10-22T08:40:36;7.63;;;1.90;;
74371;SDS011;62885;51.374;6.170;2022-10-22T08:51:01;12.57;;;2.22;;
74371;SDS011;62885;51.374;6.170;2022-10-22T08:53:29;4.45;;;1.58;;
74371;SDS011;62885;51.374;6.170;2022-10-22T08:56:01;9.65;;;1.95;;
74371;SDS011;62885;51.374;6.170;2022-10-22T09:00:54;7.80;;;1.63;;
74371;SDS011;62885;51.374;6.170;2022-10-22T09:08:38;13.05;;;5.60;;
74371;SDS011;62885;51.374;6.170;2022-10-22T09:13:41;5.65;;;1.73;;
74371;SDS011;62885;51.374;6.170;2022-10-22T09:16:33;11.23;;;2.20;;
74371;SDS011;62885;51.374;6.170;2022-10-22T09:24:38;6.50;;;3.10;;
74371;SDS011;62885;51.374;6.170;2022-10-22T09:29:42;8.65;;;1.45;;
74371;SDS011;62885;51.374;6.170;2022-10-22T09:32:08;9.27;;;1.70;;
74371;SDS011;62885;51.374;6.170;2022-10-22T09:34:34;7.35;;;1.48;;
74371;SDS011;62885;51.374;6.170;2022-10-22T09:37:03;8.15;;;1.90;;
74371;SDS011;62885;51.374;6.170;2022-10-22T09:39:39;6.53;;;1.73;;
74371;SDS011;62885;51.374;6.170;2022-10-22T09:42:09;7.45;;;1.52;;
74371;SDS011;62885;51.374;6.170;2022-10-22T09:44:36;4.35;;;1.30;;
74371;SDS011;62885;51.374;6.170;2022-10-22T09:47:06;8.05;;;1.35;;
74371;SDS011;62885;51.374;6.170;2022-10-22T09:49:50;7.32;;;1.45;;
74371;SDS011;62885;51.374;6.170;2022-10-22T09:52:31;5.40;;;1.45;;
74371;SDS011;62885;51.374;6.170;2022-10-22T09:55:00;4.18;;;1.25;;
74371;SDS011;62885;51.374;6.170;2022-10-22T09:57:27;8.88;;;2.85;;
74371;SDS011;62885;51.374;6.170;2022-10-22T09:59:53;6.75;;;2.15;;
74371;SDS011;62885;51.374;6.170;2022-10-22T10:02:22;7.65;;;1.90;;
74371;SDS011;62885;51.374;6.170;2022-10-22T10:04:53;5.97;;;1.40;;
74371;SDS011;62885;51.374;6.170;2022-10-22T10:07:29;5.80;;;2.13;;
74371;SDS011;62885;51.374;6.170;2022-10-22T10:09:56;4.28;;;1.40;;
74371;SDS011;62885;51.374;6.170;2022-10-22T10:15:23;7.70;;;1.63;;
74371;SDS011;62885;51.374;6.170;2022-10-22T10:25:45;6.93;;;1.58;;
74371;SDS011;62885;51.374;6.170;2022-10-22T10:33:27;5.87;;;1.57;;
74371;SDS011;62885;51.374;6.170;2022-10-22T10:36:22;8.27;;;1.80;;
74371;SDS011;62885;51.374;6.170;2022-10-22T10:39:00;4.25;;;1.40;;
74371;SDS011;62885;51.374;6.170;2022-10-22T10:41:41;3.95;;;1.17;;
74371;SDS011;62885;51.374;6.170;2022-10-22T10:49:39;6.18;;;1.27;;
74371;SDS011;62885;51.374;6.170;2022-10-22T10:52:11;7.63;;;1.30;;
74371;SDS011;62885;51.374;6.170;2022-10-22T10:54:52;4.78;;;1.13;;
74371;SDS011;62885;51.374;6.170;2022-10-22T11:00:19;8.85;;;1.60;;
74371;SDS011;62885;51.374;6.170;2022-10-22T11:05:47;8.63;;;1.67;;
74371;SDS011;62885;51.374;6.170;2022-10-22T11:13:35;6.25;;;1.20;;
74371;SDS011;62885;51.374;6.170;2022-10-22T11:16:04;6.95;;;1.90;;
74371;SDS011;62885;51.374;6.170;2022-10-22T11:24:09;6.47;;;1.17;;
74371;SDS011;62885;51.374;6.170;2022-10-22T11:26:45;6.00;;;1.33;;
74371;SDS011;62885;51.374;6.170;2022-10-22T11:29:19;4.80;;;1.00;;
74371;SDS011;62885;51.374;6.170;2022-10-22T11:31:48;6.18;;;1.40;;
74371;SDS011;62885;51.374;6.170;2022-10-22T11:34:17;1.67;;;0.80;;
74371;SDS011;62885;51.374;6.170;2022-10-22T11:36:46;7.30;;;1.75;;
74371;SDS011;62885;51.374;6.170;2022-10-22T11:39:27;11.05;;;1.40;;
74371;SDS011;62885;51.374;6.170;2022-10-22T11:42:22;5.53;;;1.15;;
74371;SDS011;62885;51.374;6.170;2022-10-22T11:45:25;6.60;;;1.20;;
74371;SDS011;62885;51.374;6.170;2022-10-22T11:47:52;4.15;;;1.00;;
74371;SDS011;62885;51.374;6.170;2022-10-22T11:50:22;5.70;;;1.30;;
74371;SDS011;62885;51.374;6.170;2022-10-22T11:53:00;5.18;;;1.08;;
74371;SDS011;62885;51.374;6.170;2022-10-22T11:55:30;4.68;;;1.20;;
74371;SDS011;62885;51.374;6.170;2022-10-22T11:57:58;5.35;;;1.23;;
74371;SDS011;62885;51.374;6.170;2022-10-22T12:16:33;5.15;;;1.10;;
74371;SDS011;62885;51.374;6.170;2022-10-22T12:19:04;7.88;;;1.30;;
74371;SDS011;62885;51.374;6.170;2022-10-22T12:21:38;3.45;;;1.25;;
74371;SDS011;62885;51.374;6.170;2022-10-22T12:24:05;7.15;;;1.50;;
74371;SDS011;62885;51.374;6.170;2022-10-22T12:26:33;4.93;;;1.23;;
74371;SDS011;62885;51.374;6.170;2022-10-22T12:29:00;2.95;;;1.00;;
74371;SDS011;62885;51.374;6.170;2022-10-22T12:31:27;2.55;;;0.90;;
74371;SDS011;62885;51.374;6.170;2022-10-22T12:33:59;7.15;;;1.10;;
74371;SDS011;62885;51.374;6.170;2022-10-22T12:36:26;5.20;;;1.30;;
74371;SDS011;62885;51.374;6.170;2022-10-22T12:38:52;3.38;;;1.42;;
74371;SDS011;62885;51.374;6.170;2022-10-22T12:41:18;3.60;;;1.02;;
74371;SDS011;62885;51.374;6.170;2022-10-22T12:43:46;3.50;;;1.42;;
74371;SDS011;62885;51.374;6.170;2022-10-22T12:46:11;4.10;;;1.40;;
74371;SDS011;62885;51.374;6.170;2022-10-22T12:48:40;9.63;;;1.75;;
74371;SDS011;62885;51.374;6.170;2022-10-22T12:51:08;3.20;;;1.00;;
74371;SDS011;62885;51.374;6.170;2022-10-22T12:53:44;7.90;;;1.63;;
74371;SDS011;62885;51.374;6.170;2022-10-22T12:56:14;6.18;;;1.40;;
74371;SDS011;62885;51.374;6.170;2022-10-22T12:58:46;4.72;;;1.27;;
74371;SDS011;62885;51.374;6.170;2022-10-22T13:01:16;5.75;;;1.20;;
74371;SDS011;62885;51.374;6.170;2022-10-22T13:03:46;7.95;;;1.20;;
74371;SDS011;62885;51.374;6.170;2022-10-22T13:08:44;5.47;;;1.30;;
74371;SDS011;62885;51.374;6.170;2022-10-22T13:11:55;2.55;;;0.88;;
74371;SDS011;62885;51.374;6.170;2022-10-22T13:14:29;4.10;;;1.20;;
74371;SDS011;62885;51.374;6.170;2022-10-22T13:17:04;4.55;;;1.60;;
74371;SDS011;62885;51.374;6.170;2022-10-22T13:20:02;5.28;;;1.55;;
74371;SDS011;62885;51.374;6.170;2022-10-22T13:25:21;2.38;;;0.98;;
74371;SDS011;62885;51.374;6.170;2022-10-22T13:27:59;6.13;;;1.20;;
74371;SDS011;62885;51.374;6.170;2022-10-22T13:30:31;5.78;;;1.50;;
74371;SDS011;62885;51.374;6.170;2022-10-22T13:35:29;6.85;;;1.20;;
74371;SDS011;62885;51.374;6.170;2022-10-22T13:37:58;5.13;;;1.23;;
74371;SDS011;62885;51.374;6.170;2022-10-22T13:40:24;7.15;;;1.30;;
74371;SDS011;62885;51.374;6.170;2022-10-22T13:42:49;8.70;;;2.20;;
74371;SDS011;62885;51.374;6.170;2022-10-22T13:45:15;10.15;;;3.00;;
74371;SDS011;62885;51.374;6.170;2022-10-22T13:47:41;5.50;;;1.77;;
74371;SDS011;62885;51.374;6.170;2022-10-22T13:50:12;4.38;;;1.33;;
74371;SDS011;62885;51.374;6.170;2022-10-22T13:52:40;5.40;;;1.40;;
74371;SDS011;62885;51.374;6.170;2022-10-22T14:00:33;7.05;;;1.60;;
74371;SDS011;62885;51.374;6.170;2022-10-22T14:03:02;6.65;;;1.65;;
74371;SDS011;62885;51.374;6.170;2022-10-22T14:05:28;6.00;;;0.98;;
74371;SDS011;62885;51.374;6.170;2022-10-22T14:07:56;8.45;;;1.70;;
74371;SDS011;62885;51.374;6.170;2022-10-22T14:10:24;3.72;;;0.90;;
74371;SDS011;62885;51.374;6.170;2022-10-22T14:12:50;5.07;;;1.42;;
74371;SDS011;62885;51.374;6.170;2022-10-22T14:15:17;4.18;;;1.17;;
74371;SDS011;62885;51.374;6.170;2022-10-22T14:17:45;6.82;;;1.15;;
74371;SDS011;62885;51.374;6.170;2022-10-22T14:20:20;6.72;;;1.70;;
74371;SDS011;62885;51.374;6.170;2022-10-22T14:22:47;6.60;;;2.13;;
74371;SDS011;62885;51.374;6.170;2022-10-22T14:25:15;6.63;;;1.05;;
74371;SDS011;62885;51.374;6.170;2022-10-22T14:27:42;3.40;;;1.10;;
74371;SDS011;62885;51.374;6.170;2022-10-22T14:30:08;5.82;;;2.17;;
74371;SDS011;62885;51.374;6.170;2022-10-22T14:32:38;6.13;;;1.40;;
74371;SDS011;62885;51.374;6.170;2022-10-22T14:35:03;2.53;;;1.15;;
74371;SDS011;62885;51.374;6.170;2022-10-22T14:37:29;3.60;;;1.15;;
74371;SDS011;62885;51.374;6.170;2022-10-22T14:39:54;7.63;;;2.03;;
74371;SDS011;62885;51.374;6.170;2022-10-22T14:42:28;10.52;;;2.88;;
74371;SDS011;62885;51.374;6.170;2022-10-22T14:44:54;14.48;;;6.90;;
74371;SDS011;62885;51.374;6.170;2022-10-22T14:47:19;7.28;;;2.70;;
74371;SDS011;62885;51.374;6.170;2022-10-22T14:49:45;5.60;;;2.13;;
74371;SDS011;62885;51.374;6.170;2022-10-22T14:52:10;6.50;;;1.38;;
74371;SDS011;62885;51.374;6.170;2022-10-22T14:54:35;2.78;;;1.30;;
74371;SDS011;62885;51.374;6.170;2022-10-22T14:57:01;8.40;;;1.93;;
74371;SDS011;62885;51.374;6.170;2022-10-22T14:59:28;5.90;;;1.30;;
74371;SDS011;62885;51.374;6.170;2022-10-22T15:01:53;7.38;;;1.50;;
74371;SDS011;62885;51.374;6.170;2022-10-22T15:04:19;4.15;;;1.00;;
74371;SDS011;62885;51.374;6.170;2022-10-22T15:06:44;6.57;;;1.42;;
74371;SDS011;62885;51.374;6.170;2022-10-22T15:09:10;5.72;;;1.35;;
74371;SDS011;62885;51.374;6.170;2022-10-22T15:11:35;3.90;;;1.20;;
74371;SDS011;62885;51.374;6.170;2022-10-22T15:14:00;7.18;;;1.35;;
74371;SDS011;62885;51.374;6.170;2022-10-22T15:16:26;5.78;;;1.35;;
74371;SDS011;62885;51.374;6.170;2022-10-22T15:18:51;4.88;;;1.50;;
74371;SDS011;62885;51.374;6.170;2022-10-22T15:21:18;4.47;;;1.15;;
74371;SDS011;62885;51.374;6.170;2022-10-22T15:23:45;7.20;;;2.00;;
74371;SDS011;62885;51.374;6.170;2022-10-22T15:26:11;5.25;;;1.85;;
74371;SDS011;62885;51.374;6.170;2022-10-22T15:28:37;6.95;;;1.38;;
74371;SDS011;62885;51.374;6.170;2022-10-22T15:31:04;6.30;;;1.83;;
74371;SDS011;62885;51.374;6.170;2022-10-22T15:33:29;2.65;;;1.10;;
74371;SDS011;62885;51.374;6.170;2022-10-22T15:35:55;6.72;;;1.88;;
74371;SDS011;62885;51.374;6.170;2022-10-22T15:38:22;4.30;;;1.70;;
74371;SDS011;62885;51.374;6.170;2022-10-22T15:40:58;5.60;;;1.70;;
74371;SDS011;62885;51.374;6.170;2022-10-22T15:43:28;5.43;;;1.50;;
74371;SDS011;62885;51.374;6.170;2022-10-22T15:46:06;5.18;;;1.30;;
74371;SDS011;62885;51.374;6.170;2022-10-22T15:48:32;8.32;;;2.25;;
74371;SDS011;62885;51.374;6.170;2022-10-22T15:50:57;5.97;;;1.50;;
74371;SDS011;62885;51.374;6.170;2022-10-22T15:53:22;4.60;;;1.40;;
74371;SDS011;62885;51.374;6.170;2022-10-22T15:55:48;5.10;;;1.60;;
74371;SDS011;62885;51.374;6.170;2022-10-22T15:58:13;7.78;;;2.83;;
74371;SDS011;62885;51.374;6.170;2022-10-22T16:00:39;5.35;;;2.15;;
74371;SDS011;62885;51.374;6.170;2022-10-22T16:03:04;5.00;;;1.87;;
74371;SDS011;62885;51.374;6.170;2022-10-22T16:05:30;5.90;;;2.15;;
74371;SDS011;62885;51.374;6.170;2022-10-22T16:07:55;7.28;;;1.85;;
74371;SDS011;62885;51.374;6.170;2022-10-22T16:10:21;7.45;;;2.00;;
74371;SDS011;62885;51.374;6.170;2022-10-22T16:12:46;5.45;;;2.08;;
74371;SDS011;62885;51.374;6.170;2022-10-22T16:15:13;9.40;;;2.47;;
74371;SDS011;62885;51.374;6.170;2022-10-22T16:17:39;8.48;;;3.05;;
74371;SDS011;62885;51.374;6.170;2022-10-22T16:20:05;6.90;;;2.60;;
74371;SDS011;62885;51.374;6.170;2022-10-22T16:22:30;9.73;;;4.30;;
74371;SDS011;62885;51.374;6.170;2022-10-22T16:24:57;12.55;;;5.72;;
74371;SDS011;62885;51.374;6.170;2022-10-22T16:27:23;10.00;;;5.45;;
74371;SDS011;62885;51.374;6.170;2022-10-22T16:29:48;13.85;;;5.90;;
74371;SDS011;62885;51.374;6.170;2022-10-22T16:32:14;11.38;;;6.28;;
74371;SDS011;62885;51.374;6.170;2022-10-22T16:34:40;12.90;;;4.90;;
74371;SDS011;62885;51.374;6.170;2022-10-22T16:37:07;8.82;;;4.05;;
74371;SDS011;62885;51.374;6.170;2022-10-22T16:39:34;9.82;;;3.65;;
74371;SDS011;62885;51.374;6.170;2022-10-22T16:42:00;8.63;;;3.78;;
74371;SDS011;62885;51.374;6.170;2022-10-22T16:44:25;8.70;;;3.15;;
74371;SDS011;62885;51.374;6.170;2022-10-22T16:46:51;9.65;;;3.95;;
74371;SDS011;62885;51.374;6.170;2022-10-22T16:49:17;10.30;;;3.88;;
74371;SDS011;62885;51.374;6.170;2022-10-22T16:51:43;7.75;;;3.45;;
74371;SDS011;62885;51.374;6.170;2022-10-22T16:54:09;5.97;;;2.78;;
74371;SDS011;62885;51.374;6.170;2022-10-22T16:56:37;10.07;;;3.53;;
74371;SDS011;62885;51.374;6.170;2022-10-22T16:59:03;11.82;;;4.63;;
74371;SDS011;62885;51.374;6.170;2022-10-22T17:01:28;8.70;;;4.25;;